Terminal Aerodrome Forecast
Issued by NWS Northern Indiana

Home | Current Version | Previous Version | Graphics & Text | Print | Product List | Glossary On
Versions: 1 2 3 4 5 6 7 8 9 10 11 12 13 14 15
976
FTUS43 KIWX 081438 AAA
TAFFWA
TAF AMD
KFWA 081438Z 0815/0912 25008KT P6SM SCT040 OVC080
     FM081800 28010KT P6SM BKN040
     FM090200 28010KT P6SM VCSH OVC025
     FM090900 29012KT 3SM -SHSN OVC015=

USA.gov is the U.S. government's official web portal to all federal, state and local government web resources and services.